Time;durP1;ratioP1;P1;durP2;ratioP2;P2;SDS_P1;SDS_P2;PMS_P1;PMS_P2;Temp;Humidity;BMP_temperature;BMP_pressure;BME280_temperature;BME280_humidity;BME280_pressure;Samples;Min_cycle;Max_cycle;Signal;HPM_P1;HPM_P2
2023/01/13 00:02:16;;;;;;;10.93;2.67;;;;;;;;;;5033119;28;20049;-75
2023/01/13 00:04:43;;;;;;;9.63;2.40;;;;;;;;;;5025907;28;20110;-74
2023/01/13 00:07:09;;;;;;;9.40;2.42;;;;;;;;;;5046667;28;20130;-76
2023/01/13 00:09:35;;;;;;;11.10;2.92;;;;;;;;;;5031680;28;20045;-76
2023/01/13 00:12:02;;;;;;;12.73;2.83;;;;;;;;;;5041832;28;20391;-75
2023/01/13 00:14:29;;;;;;;13.18;2.63;;;;;;;;;;5051126;28;20457;-62
2023/01/13 00:16:55;;;;;;;13.48;2.70;;;;;;;;;;5051350;28;20128;-69
2023/01/13 00:19:21;;;;;;;12.20;2.97;;;15.20;99.90;;;;;;5032788;28;20045;-64
2023/01/13 00:21:47;;;;;;;12.90;3.15;;;15.00;99.90;;;;;;5037733;28;20384;-71
2023/01/13 00:24:13;;;;;;;12.63;3.53;;;;;;;;;;5036645;28;20041;-64
2023/01/13 00:26:38;;;;;;;8.35;2.70;;;15.10;99.90;;;;;;5048300;28;20200;-61
2023/01/13 00:29:04;;;;;;;10.75;2.55;;;15.20;99.90;;;;;;5054675;28;20124;-71
2023/01/13 00:31:30;;;;;;;12.95;3.17;;;;;;;;;;5052469;28;20073;-75
2023/01/13 00:34:01;;;;;;;13.25;2.85;;;;;;;;;;5050353;28;20151;-74
2023/01/13 00:36:30;;;;;;;13.40;3.08;;;;;;;;;;5037025;28;20045;-74
2023/01/13 00:38:56;;;;;;;11.43;3.05;;;;;;;;;;5052489;28;20045;-74
2023/01/13 00:41:23;;;;;;;13.90;3.22;;;15.30;98.80;;;;;;5056201;28;20048;-70
2023/01/13 00:43:49;;;;;;;14.07;3.40;;;;;;;;;;5052176;28;20430;-71
2023/01/13 00:46:17;;;;;;;14.70;4.57;;;15.30;98.90;;;;;;5052309;28;20084;-73
2023/01/13 00:48:42;;;;;;;13.02;3.67;;;15.20;99.90;;;;;;5055135;28;20479;-59
2023/01/13 00:51:11;;;;;;;14.68;3.65;;;14.90;99.90;;;;;;5056036;28;20049;-71
2023/01/13 00:53:47;;;;;;;15.82;3.50;;;15.00;98.80;;;;;;5040583;28;20074;-76
2023/01/13 00:56:20;;;;;;;16.30;3.63;;;15.00;98.80;;;;;;5045711;28;20107;-62
2023/01/13 00:58:46;;;;;;;13.60;3.80;;;;;;;;;;5035867;28;20050;-61
2023/01/13 01:01:20;;;;;;;14.90;3.70;;;15.20;98.80;;;;;;5051284;28;20048;-71
2023/01/13 01:03:49;;;;;;;15.98;4.47;;;15.10;99.90;;;;;;5030020;28;20049;-71
2023/01/13 01:06:17;;;;;;;14.25;3.90;;;15.20;99.90;;;;;;5053368;28;20091;-71
2023/01/13 01:08:43;;;;;;;18.67;3.92;;;15.20;99.80;;;;;;5034834;28;20462;-59
2023/01/13 01:11:16;;;;;;;18.88;4.25;;;15.10;99.80;;;;;;5047981;28;20075;-68
2023/01/13 01:13:43;;;;;;;20.33;4.22;;;;;;;;;;5047904;28;20045;-68
2023/01/13 01:16:10;;;;;;;16.58;3.92;;;14.80;98.30;;;;;;5036105;28;20096;-61
2023/01/13 01:18:37;;;;;;;14.23;3.92;;;15.00;99.70;;;;;;5052079;28;20046;-73
2023/01/13 01:21:03;;;;;;;18.88;4.07;;;15.00;99.60;;;;;;5034747;28;20060;-67
2023/01/13 01:23:30;;;;;;;17.88;3.72;;;15.20;99.60;;;;;;5041044;28;20061;-71
2023/01/13 01:26:09;;;;;;;15.70;4.22;;;14.80;98.30;;;;;;5047306;28;20095;-70
2023/01/13 01:28:35;;;;;;;15.80;4.38;;;15.00;99.50;;;;;;5035868;28;20117;-59
2023/01/13 01:31:06;;;;;;;15.02;4.28;;;14.90;98.10;;;;;;5045598;28;20124;-71
2023/01/13 01:33:32;;;;;;;16.15;4.78;;;;;;;;;;5049913;28;20495;-71
2023/01/13 01:35:59;;;;;;;14.38;4.68;;;15.10;97.90;;;;;;5054605;28;20056;-60
2023/01/13 01:38:25;;;;;;;18.83;4.78;;;15.10;99.30;;;;;;5050320;28;20045;-70
2023/01/13 01:40:50;;;;;;;18.30;3.97;;;14.90;99.30;;;;;;5048880;28;20041;-71
2023/01/13 01:46:03;;;;;;;18.05;4.93;;;14.90;99.10;;;;;;5051800;28;20226;-71
2023/01/13 01:48:30;;;;;;;19.20;4.82;;;15.00;97.40;;;;;;5052103;28;20143;-71
2023/01/13 01:50:56;;;;;;;16.63;3.85;;;;;;;;;;5050692;28;20056;-74
2023/01/13 01:53:25;;;;;;;17.98;4.40;;;;;;;;;;5039079;28;20492;-75
2023/01/13 01:55:52;;;;;;;18.38;4.90;;;;;;;;;;5054648;28;20394;-62
2023/01/13 01:58:20;;;;;;;17.52;4.50;;;14.70;97.60;;;;;;5051816;28;20049;-71
2023/01/13 02:00:47;;;;;;;19.05;4.50;;;;;;;;;;5038109;28;20407;-72
2023/01/13 02:03:13;;;;;;;15.95;4.35;;;;;;;;;;5041127;28;20041;-75
2023/01/13 02:05:40;;;;;;;16.33;4.93;;;;;;;;;;5042225;28;20115;-75
2023/01/13 02:08:06;;;;;;;19.92;4.28;;;;;;;;;;5066767;28;20043;-74
2023/01/13 02:10:32;;;;;;;15.68;3.80;;;;;;;;;;5041585;28;20049;-76
2023/01/13 02:13:04;;;;;;;15.30;4.10;;;14.90;97.50;;;;;;5057789;28;20071;-71
2023/01/13 02:16:01;;;;;;;22.55;4.10;;;14.90;97.00;;;;;;5053923;28;20120;-72
2023/01/13 02:18:33;;;;;;;23.10;4.28;;;14.90;98.70;;;;;;5053086;28;20110;-69
2023/01/13 02:21:12;;;;;;;22.30;4.57;;;;;;;;;;5043526;28;20053;-58
2023/01/13 02:27:08;;;;;;;19.27;5.35;;;14.80;96.90;;;;;;5049113;28;20042;-69
2023/01/13 02:32:39;;;;;;;17.48;4.65;;;15.00;97.20;;;;;;5056779;28;20045;-74
2023/01/13 02:35:22;;;;;;;20.35;4.65;;;15.00;98.50;;;;;;5035797;28;20049;-58
2023/01/13 02:37:48;;;;;;;14.98;4.30;;;;;;;;;;5052045;28;20048;-70
2023/01/13 02:40:25;;;;;;;21.42;4.80;;;14.80;97.10;;;;;;5051594;28;20056;-68
2023/01/13 02:45:48;;;;;;;19.67;4.72;;;14.90;98.40;;;;;;5052386;28;20118;-69
2023/01/13 02:48:14;;;;;;;19.10;5.15;;;;;;;;;;5039232;28;20498;-73
2023/01/13 02:50:45;;;;;;;13.68;4.20;;;;;;;;;;5053101;28;20078;-73
2023/01/13 02:53:15;;;;;;;18.23;3.80;;;;;;;;;;5041882;28;20050;-64
2023/01/13 02:55:46;;;;;;;14.50;3.60;;;14.70;96.90;;;;;;5052039;28;20375;-70
2023/01/13 02:58:13;;;;;;;16.88;5.07;;;;;;;;;;5045138;28;20042;-69
2023/01/13 03:00:39;;;;;;;22.15;4.75;;;;;;;;;;5043084;28;20092;-63
2023/01/13 03:03:05;;;;;;;20.75;4.25;;;;;;;;;;5048212;28;20040;-64
2023/01/13 03:05:31;;;;;;;18.45;4.43;;;14.80;98.20;;;;;;5043298;28;20080;-71
2023/01/13 03:08:08;;;;;;;15.98;3.80;;;14.80;98.10;;;;;;5048105;28;20036;-60
2023/01/13 03:10:55;;;;;;;16.98;4.00;;;14.60;96.20;;;;;;5042375;28;20049;-69
2023/01/13 03:13:51;;;;;;;18.92;4.88;;;14.70;96.20;;;;;;5053377;28;20372;-71
2023/01/13 03:16:37;;;;;;;18.67;4.68;;;;;;;;;;5049447;28;20202;-59
2023/01/13 03:19:03;;;;;;;15.32;3.78;;;;;;;;;;5038505;28;20128;-71
2023/01/13 03:21:38;;;;;;;15.95;3.70;;;14.90;98.00;;;;;;5069079;28;20091;-70
2023/01/13 03:24:17;;;;;;;16.92;5.10;;;15.00;96.20;;;;;;5046085;28;20054;-72
2023/01/13 03:26:48;;;;;;;16.33;4.10;;;14.50;96.60;;;;;;5039273;28;20049;-70
2023/01/13 03:29:39;;;;;;;20.40;4.78;;;14.60;96.60;;;;;;5049273;28;20049;-70
2023/01/13 03:32:10;;;;;;;16.45;3.75;;;;;;;;;;5035372;28;20045;-73
2023/01/13 03:34:43;;;;;;;17.45;4.38;;;14.80;96.50;;;;;;5036076;28;20095;-71
2023/01/13 03:37:09;;;;;;;18.30;4.25;;;;;;;;;;5045014;28;20178;-69
2023/01/13 03:39:36;;;;;;;17.58;4.18;;;14.60;96.00;;;;;;5051056;28;20049;-70
2023/01/13 03:42:14;;;;;;;16.73;4.25;;;14.60;97.70;;;;;;5049085;28;20056;-72
2023/01/13 03:45:09;;;;;;;19.27;4.25;;;14.80;96.50;;;;;;5035337;28;20056;-70
2023/01/13 03:47:53;;;;;;;15.77;4.15;;;14.80;97.70;;;;;;5018883;28;20120;-71
2023/01/13 03:50:23;;;;;;;19.15;4.30;;;14.40;97.60;;;;;;5049594;28;20045;-72
2023/01/13 03:53:00;;;;;;;15.77;4.20;;;14.60;97.60;;;;;;5037545;28;20048;-72
2023/01/13 03:55:29;;;;;;;15.85;4.80;;;14.40;96.20;;;;;;5051278;28;20053;-74
2023/01/13 03:58:00;;;;;;;13.55;3.50;;;14.50;96.20;;;;;;5032518;28;20080;-72
2023/01/13 04:00:33;;;;;;;21.35;4.63;;;14.70;96.30;;;;;;5036396;28;20503;-75
2023/01/13 04:03:02;;;;;;;16.20;4.43;;;;;;;;;;5016651;28;20167;-73
2023/01/13 04:05:28;;;;;;;15.30;4.50;;;;;;;;;;5038734;28;20049;-74
2023/01/13 04:08:07;;;;;;;20.42;4.18;;;;;;;;;;5055016;28;20394;-59
2023/01/13 04:11:01;;;;;;;14.73;4.18;;;14.50;95.80;;;;;;5056785;28;20043;-70
2023/01/13 04:13:29;;;;;;;20.90;4.20;;;14.60;97.40;;;;;;5039494;28;20041;-71
2023/01/13 04:15:54;;;;;;;19.50;4.60;;;14.50;96.10;;;;;;5048581;28;20048;-71
2023/01/13 04:18:21;;;;;;;17.52;4.28;;;14.50;97.40;;;;;;5055399;28;20033;-70
2023/01/13 04:20:48;;;;;;;14.63;4.10;;;14.50;97.40;;;;;;5039189;28;20399;-70
2023/01/13 04:23:14;;;;;;;17.92;5.15;;;;;;;;;;5058728;28;20037;-70
2023/01/13 04:25:42;;;;;;;14.95;4.22;;;14.60;96.10;;;;;;5056399;28;20048;-70
2023/01/13 04:28:08;;;;;;;18.10;3.88;;;14.40;97.30;;;;;;5040277;28;20053;-71
2023/01/13 04:30:34;;;;;;;20.80;4.07;;;14.40;97.30;;;;;;5055357;28;20052;-62
2023/01/13 04:33:00;;;;;;;15.50;4.28;;;14.50;97.40;;;;;;5054641;28;20037;-70
2023/01/13 04:35:25;;;;;;;17.70;4.88;;;14.70;97.40;;;;;;5052894;28;20136;-72
2023/01/13 04:37:51;;;;;;;18.67;4.47;;;14.60;97.40;;;;;;5055674;28;20517;-70
2023/01/13 04:40:17;;;;;;;15.45;4.28;;;14.40;96.10;;;;;;5041328;28;20050;-71
2023/01/13 04:42:44;;;;;;;17.77;4.40;;;;;;;;;;5044906;28;20052;-65
2023/01/13 04:45:10;;;;;;;19.00;4.75;;;14.40;97.30;;;;;;5048179;28;20055;-71
2023/01/13 04:47:36;;;;;;;18.75;4.43;;;;;;;;;;5043351;28;20088;-72
2023/01/13 04:50:02;;;;;;;18.58;4.57;;;;;;;;;;5051254;28;20056;-66
2023/01/13 04:52:28;;;;;;;16.02;4.15;;;14.50;97.30;;;;;;5056178;28;20049;-72
2023/01/13 04:54:53;;;;;;;21.88;4.32;;;14.50;97.30;;;;;;5054494;28;20045;-71
2023/01/13 04:57:19;;;;;;;16.33;3.90;;;14.40;97.20;;;;;;5054168;28;20124;-67
2023/01/13 04:59:48;;;;;;;19.05;4.13;;;;;;;;;;5054791;28;20494;-74
2023/01/13 05:02:18;;;;;;;16.98;4.38;;;;;;;;;;5055186;28;20051;-75
2023/01/13 05:04:47;;;;;;;15.38;3.92;;;;;;;;;;5047128;28;20091;-75
2023/01/13 05:07:13;;;;;;;18.65;4.55;;;;;;;;;;5056345;28;20045;-75
2023/01/13 05:09:40;;;;;;;16.58;3.83;;;;;;;;;;5039953;28;20383;-74
2023/01/13 05:17:36;;;;;;;17.20;4.22;;;;;;;;;;5054811;28;20051;-59
2023/01/13 05:20:02;;;;;;;15.45;3.70;;;14.40;97.10;;;;;;5057730;28;20045;-70
2023/01/13 05:25:21;;;;;;;21.83;4.30;;;14.20;97.10;;;;;;5071527;28;20045;-59
2023/01/13 05:27:48;;;;;;;20.23;4.97;;;14.10;95.60;;;;;;5055276;28;20040;-71
2023/01/13 05:30:14;;;;;;;17.52;3.90;;;14.50;97.20;;;;;;5034788;28;20498;-67
2023/01/13 05:32:45;;;;;;;19.40;4.32;;;;;;;;;;5046425;28;20037;-75
2023/01/13 05:35:11;;;;;;;18.85;4.63;;;;;;;;;;5049689;28;20127;-75
2023/01/13 05:37:38;;;;;;;19.02;4.57;;;;;;;;;;5057339;28;20092;-70
2023/01/13 05:43:20;;;;;;;21.85;5.10;;;14.40;95.80;;;;;;5054823;28;20045;-60
2023/01/13 05:45:50;;;;;;;18.42;4.25;;;14.30;97.00;;;;;;5045961;28;20410;-70
2023/01/13 05:48:18;;;;;;;16.90;4.13;;;14.40;97.00;;;;;;5054188;28;20069;-60
2023/01/13 05:50:44;;;;;;;16.23;4.25;;;14.10;96.90;;;;;;5054035;28;20049;-67
2023/01/13 05:53:10;;;;;;;15.18;3.85;;;14.40;97.00;;;;;;5046955;28;20539;-60
2023/01/13 05:55:40;;;;;;;18.42;4.43;;;14.20;95.60;;;;;;5044892;28;20477;-67
2023/01/13 05:58:09;;;;;;;16.35;4.25;;;14.40;95.60;;;;;;5035728;28;20053;-62
2023/01/13 06:00:38;;;;;;;19.45;4.25;;;;;;;;;;5048674;28;20548;-75
2023/01/13 06:03:04;;;;;;;14.43;4.38;;;;;;;;;;5059397;28;20083;-73
2023/01/13 06:05:31;;;;;;;15.15;3.90;;;;;;;;;;5075016;28;20045;-74
2023/01/13 06:07:57;;;;;;;18.30;4.20;;;14.30;95.10;;;;;;5072954;28;20105;-65
2023/01/13 06:10:24;;;;;;;21.25;4.85;;;14.30;96.70;;;;;;5054614;28;20376;-62
2023/01/13 06:12:50;;;;;;;17.42;3.83;;;14.00;96.70;;;;;;5038656;28;20046;-65
2023/01/13 06:15:16;;;;;;;18.58;5.25;;;14.60;95.60;;;;;;5034694;28;20072;-70
2023/01/13 06:17:41;;;;;;;15.32;3.50;;;14.30;96.80;;;;;;5034127;28;20033;-64
2023/01/13 06:20:08;;;;;;;16.85;4.57;;;14.40;96.80;;;;;;5034843;28;20046;-70
2023/01/13 06:22:35;;;;;;;19.90;4.82;;;14.40;96.70;;;;;;5034517;28;20045;-64
2023/01/13 06:25:01;;;;;;;20.13;4.55;;;14.70;95.70;;;;;;5033717;28;20045;-59
2023/01/13 06:27:27;;;;;;;18.23;4.03;;;14.50;96.70;;;;;;5044871;28;20108;-69
2023/01/13 06:29:55;;;;;;;14.98;3.88;;;;;;;;;;5036130;28;20112;-64
2023/01/13 06:32:26;;;;;;;14.73;3.70;;;14.50;96.70;;;;;;5052940;28;20080;-70
2023/01/13 06:34:59;;;;;;;17.35;4.18;;;14.50;95.30;;;;;;5048264;28;20054;-62
2023/01/13 06:37:25;;;;;;;15.50;3.88;;;14.40;96.60;;;;;;5047711;28;20047;-65
2023/01/13 06:39:52;;;;;;;18.13;4.60;;;14.40;96.60;;;;;;5039638;28;20483;-65
2023/01/13 06:45:03;;;;;;;14.75;4.07;;;14.20;96.40;;;;;;5053382;28;20049;-62
2023/01/13 06:47:28;;;;;;;14.93;3.58;;;14.30;96.40;;;;;;5037716;28;20442;-70
2023/01/13 06:49:54;;;;;;;17.60;3.70;;;14.30;96.30;;;;;;5049285;28;20048;-70
2023/01/13 06:52:20;;;;;;;14.90;3.50;;;14.30;96.30;;;;;;5043216;28;20044;-58
2023/01/13 06:54:46;;;;;;;14.10;3.58;;;;;;;;;;5041399;28;20088;-69
2023/01/13 06:57:12;;;;;;;15.90;3.50;;;14.20;96.30;;;;;;5047743;28;20048;-66
2023/01/13 06:59:39;;;;;;;14.43;3.65;;;;;;;;;;5034287;28;20567;-63
2023/01/13 07:02:04;;;;;;;13.45;3.05;;;14.40;95.10;;;;;;5048789;28;20044;-69
2023/01/13 07:04:30;;;;;;;15.55;3.70;;;14.30;96.30;;;;;;5052485;28;20041;-62
2023/01/13 07:06:56;;;;;;;13.10;3.15;;;;;;;;;;5038614;28;20052;-68
2023/01/13 07:09:22;;;;;;;13.70;3.17;;;;;;;;;;5041818;28;20502;-67
2023/01/13 07:11:50;;;;;;;11.57;3.08;;;;;;;;;;5035607;28;20045;-60
2023/01/13 07:17:00;;;;;;;14.82;3.45;;;14.30;96.30;;;;;;5041242;28;20045;-59
2023/01/13 07:19:26;;;;;;;11.27;2.95;;;14.20;96.30;;;;;;5050580;28;20048;-61
2023/01/13 07:21:52;;;;;;;13.82;3.00;;;;;;;;;;5052523;28;20487;-65
2023/01/13 07:24:18;;;;;;;13.95;2.83;;;13.90;96.30;;;;;;5050801;28;20368;-71
2023/01/13 07:26:44;;;;;;;10.93;3.17;;;14.20;96.40;;;;;;5048522;28;20041;-62
2023/01/13 07:29:10;;;;;;;13.85;2.70;;;14.30;96.50;;;;;;5042071;28;20068;-62
2023/01/13 07:31:37;;;;;;;11.23;2.88;;;;;;;;;;5057520;28;20505;-62
2023/01/13 07:34:04;;;;;;;19.80;3.20;;;14.00;95.20;;;;;;5045789;28;20072;-60
2023/01/13 07:36:30;;;;;;;12.27;3.08;;;;;;;;;;5041728;28;20042;-59
2023/01/13 07:38:56;;;;;;;12.30;2.85;;;14.20;96.50;;;;;;5056088;28;20111;-61
2023/01/13 07:44:06;;;;;;;15.00;3.33;;;14.20;96.40;;;;;;5052529;28;20052;-62
2023/01/13 07:46:32;;;;;;;11.30;2.50;;;14.60;96.60;;;;;;5056360;28;20057;-61
2023/01/13 07:48:58;;;;;;;11.77;3.17;;;14.40;96.50;;;;;;5055949;28;20380;-70
2023/01/13 07:51:24;;;;;;;11.65;2.75;;;14.30;96.50;;;;;;5055525;28;20051;-66
2023/01/13 07:53:50;;;;;;;12.25;3.58;;;;;;;;;;5057112;28;20134;-61
2023/01/13 07:56:16;;;;;;;11.65;2.75;;;14.60;96.60;;;;;;5053509;28;20044;-60
2023/01/13 07:58:41;;;;;;;10.27;2.70;;;14.40;96.50;;;;;;5056815;28;20049;-63
2023/01/13 08:01:08;;;;;;;11.52;3.13;;;14.30;96.50;;;;;;5046569;28;20041;-59
2023/01/13 08:03:34;;;;;;;14.32;2.65;;;;;;;;;;5035437;28;20080;-65
2023/01/13 08:06:01;;;;;;;13.40;3.35;;;14.50;95.30;;;;;;5046571;28;20049;-59
2023/01/13 08:08:27;;;;;;;10.45;2.47;;;;;;;;;;5056481;28;20033;-62
2023/01/13 08:10:53;;;;;;;10.93;2.63;;;14.40;96.50;;;;;;5037844;28;20092;-61
2023/01/13 08:13:19;;;;;;;9.98;2.00;;;14.60;96.50;;;;;;5036181;28;20049;-58
2023/01/13 08:15:50;;;;;;;7.78;1.83;;;14.50;95.20;;;;;;5043517;28;20048;-59
2023/01/13 08:18:18;;;;;;;11.85;2.72;;;14.20;94.60;;;;;;5045325;28;20049;-59
2023/01/13 08:20:44;;;;;;;10.38;2.47;;;14.10;96.30;;;;;;5043208;28;20099;-62
2023/01/13 08:23:10;;;;;;;10.45;2.40;;;;;;;;;;5036631;28;20046;-59
2023/01/13 08:25:36;;;;;;;11.45;3.10;;;;;;;;;;5036791;28;20061;-64
2023/01/13 08:28:02;;;;;;;9.77;2.50;;;14.40;96.20;;;;;;5047936;28;20050;-59
2023/01/13 08:30:29;;;;;;;12.18;3.13;;;;;;;;;;5038354;28;20041;-60
2023/01/13 08:32:55;;;;;;;7.43;2.20;;;14.40;96.20;;;;;;5049499;28;20044;-59
2023/01/13 08:35:21;;;;;;;11.38;3.25;;;14.30;96.10;;;;;;5047224;28;20052;-59
2023/01/13 08:37:47;;;;;;;11.20;2.40;;;14.20;96.10;;;;;;5055310;28;20040;-59
2023/01/13 08:40:13;;;;;;;10.00;2.33;;;14.40;96.00;;;;;;5053932;28;20119;-59
2023/01/13 08:42:39;;;;;;;8.20;2.72;;;;;;;;;;5054397;28;20051;-63
2023/01/13 08:45:05;;;;;;;9.63;2.80;;;14.50;94.80;;;;;;5056706;28;20049;-63
2023/01/13 08:47:32;;;;;;;12.02;2.92;;;14.50;96.00;;;;;;5054970;28;20055;-64
2023/01/13 08:49:58;;;;;;;11.98;2.40;;;14.60;96.10;;;;;;5056028;28;20063;-63
2023/01/13 08:52:24;;;;;;;8.13;3.15;;;14.10;95.90;;;;;;5043934;28;20046;-60
2023/01/13 08:54:50;;;;;;;14.55;2.85;;;14.40;96.00;;;;;;5001949;28;20047;-66
2023/01/13 08:57:18;;;;;;;11.63;3.30;;;14.50;95.90;;;;;;5040342;28;20449;-68
2023/01/13 08:59:45;;;;;;;10.50;3.10;;;14.30;95.90;;;;;;5054595;28;20045;-63
2023/01/13 09:02:15;;;;;;;9.52;2.53;;;14.80;94.00;;;;;;5052131;28;20052;-59
2023/01/13 09:04:41;;;;;;;13.35;3.20;;;14.50;95.80;;;;;;5046642;28;20380;-64
2023/01/13 09:07:07;;;;;;;11.80;2.95;;;14.60;95.50;;;;;;5052824;28;20056;-64
2023/01/13 09:09:33;;;;;;;15.68;3.17;;;;;;;;;;5040546;28;20049;-60
2023/01/13 09:14:43;;;;;;;11.25;2.83;;;14.40;96.00;;;;;;5053040;28;20467;-62
2023/01/13 09:17:09;;;;;;;11.75;2.90;;;14.40;95.90;;;;;;5054326;28;20116;-69
2023/01/13 09:19:35;;;;;;;14.55;3.22;;;14.40;96.00;;;;;;5052469;28;20041;-69
2023/01/13 09:22:01;;;;;;;12.75;3.20;;;;;;;;;;5055125;28;20048;-59
2023/01/13 09:24:27;;;;;;;13.15;3.40;;;;;;;;;;5053246;28;20045;-72
2023/01/13 09:26:53;;;;;;;10.82;2.80;;;14.40;95.70;;;;;;5051938;28;20392;-59
2023/01/13 09:29:19;;;;;;;13.38;2.80;;;14.40;96.00;;;;;;5055353;28;20051;-59
2023/01/13 09:31:45;;;;;;;10.57;3.00;;;14.30;96.10;;;;;;5053139;28;20123;-71
2023/01/13 09:37:03;;;;;;;12.93;2.97;;;;;;;;;;5053324;28;20053;-61
2023/01/13 09:39:29;;;;;;;14.25;2.83;;;;;;;;;;5055192;28;20471;-66
2023/01/13 09:44:54;;;;;;;12.05;2.97;;;14.30;94.10;;;;;;5050165;28;20061;-59
2023/01/13 09:47:28;;;;;;;11.90;3.20;;;14.50;96.20;;;;;;5054954;28;20384;-59
2023/01/13 09:49:54;;;;;;;12.32;3.33;;;14.10;96.00;;;;;;5051024;28;20410;-60
2023/01/13 09:52:22;;;;;;;15.00;3.67;;;14.40;96.10;;;;;;5031514;28;20045;-60
2023/01/13 09:54:57;;;;;;;11.68;2.60;;;14.40;95.00;;;;;;5045620;28;20053;-59
2023/01/13 09:57:23;;;;;;;11.98;3.25;;;14.60;96.20;;;;;;5053326;28;20041;-60
2023/01/13 09:59:49;;;;;;;10.82;2.90;;;14.30;96.10;;;;;;5043658;28;20525;-64
2023/01/13 10:02:26;;;;;;;13.18;2.88;;;14.50;96.20;;;;;;5041436;28;20045;-59
2023/01/13 10:05:14;;;;;;;16.73;3.33;;;14.60;94.60;;;;;;5022372;28;20053;-74
2023/01/13 10:07:50;;;;;;;10.73;2.45;;;;;;;;;;5044921;28;20052;-70
2023/01/13 10:10:23;;;;;;;12.52;2.85;;;;;;;;;;5053358;28;20037;-75
2023/01/13 10:15:34;;;;;;;11.95;2.65;;;;;;;;;;5050911;28;20053;-60
2023/01/13 10:18:39;;;;;;;10.70;2.85;;;;;;;;;;5048211;28;20041;-62
2023/01/13 10:21:24;;;;;;;11.20;3.35;;;14.20;94.30;;;;;;4993655;28;20046;-69
2023/01/13 10:23:52;;;;;;;11.25;2.88;;;;;;;;;;4994120;28;20038;-76
2023/01/13 10:26:22;;;;;;;10.32;3.08;;;;;;;;;;4976778;28;20563;-74
2023/01/13 10:28:55;;;;;;;10.20;2.83;;;;;;;;;;4992565;28;20054;-76
2023/01/13 10:31:21;;;;;;;13.25;2.90;;;;;;;;;;4992920;28;20443;-59
2023/01/13 10:33:48;;;;;;;12.02;3.20;;;;;;;;;;5006408;28;20053;-60
2023/01/13 10:36:20;;;;;;;10.15;3.10;;;14.50;94.30;;;;;;5012045;28;20133;-61
2023/01/13 10:38:47;;;;;;;14.70;3.20;;;14.50;96.30;;;;;;5012029;28;20155;-59
2023/01/13 10:41:17;;;;;;;18.70;3.60;;;14.40;96.30;;;;;;5011862;28;20519;-58
2023/01/13 10:44:05;;;;;;;13.30;3.72;;;14.60;94.50;;;;;;5000461;28;20125;-76
2023/01/13 10:46:32;;;;;;;11.23;2.55;;;14.40;96.30;;;;;;5012114;28;20061;-59
2023/01/13 10:49:03;;;;;;;12.88;3.40;;;14.60;96.30;;;;;;4995603;28;20045;-64
2023/01/13 10:51:37;;;;;;;13.10;2.95;;;14.30;94.40;;;;;;5026636;28;20095;-59
2023/01/13 10:54:12;;;;;;;11.85;3.20;;;14.40;96.30;;;;;;5051779;28;20051;-59
2023/01/13 10:56:43;;;;;;;14.80;3.20;;;14.50;95.10;;;;;;5044409;28;20462;-59
2023/01/13 10:59:23;;;;;;;10.60;3.13;;;14.20;94.40;;;;;;5035590;28;20128;-59
2023/01/13 11:02:01;;;;;;;11.43;2.97;;;14.50;94.50;;;;;;5053326;28;20516;-60
2023/01/13 11:04:27;;;;;;;11.60;3.00;;;;;;;;;;5033149;28;20478;-60
2023/01/13 11:06:53;;;;;;;8.13;2.42;;;;;;;;;;5045733;28;20464;-60
2023/01/13 11:09:21;;;;;;;11.27;2.85;;;;;;;;;;5032471;28;20060;-61
2023/01/13 11:11:54;;;;;;;9.52;2.75;;;;;;;;;;5032073;28;20476;-59
2023/01/13 11:14:32;;;;;;;11.18;2.72;;;;;;;;;;5016859;28;20120;-66
2023/01/13 11:17:00;;;;;;;9.73;2.58;;;14.40;96.20;;;;;;5032353;28;20056;-59
2023/01/13 11:19:27;;;;;;;10.07;2.50;;;14.70;96.40;;;;;;5032808;28;20096;-60
2023/01/13 11:21:53;;;;;;;14.90;2.75;;;14.40;96.30;;;;;;5032318;28;20056;-60
2023/01/13 11:24:30;;;;;;;13.75;3.00;;;14.40;94.90;;;;;;5035843;28;20053;-59
2023/01/13 11:27:03;;;;;;;11.70;3.38;;;14.50;96.20;;;;;;5047329;28;20504;-59
2023/01/13 11:29:41;;;;;;;10.43;3.17;;;14.60;96.20;;;;;;5019103;28;20053;-62
2023/01/13 11:32:12;;;;;;;13.20;3.35;;;14.50;96.30;;;;;;5031863;28;20543;-59
2023/01/13 11:34:39;;;;;;;8.60;2.42;;;14.40;96.20;;;;;;5032033;28;20130;-59
2023/01/13 11:37:22;;;;;;;11.32;2.92;;;14.80;94.30;;;;;;5032165;28;20419;-59
2023/01/13 11:40:24;;;;;;;12.32;2.97;;;14.50;96.40;;;;;;5013281;28;20057;-60
2023/01/13 11:42:54;;;;;;;13.10;3.08;;;14.50;96.30;;;;;;4990405;28;20054;-60
2023/01/13 11:45:41;;;;;;;16.63;2.95;;;14.40;95.00;;;;;;4992152;28;20089;-59
2023/01/13 11:48:08;;;;;;;14.70;3.55;;;;;;;;;;4975781;28;20054;-59
2023/01/13 11:50:49;;;;;;;27.90;10.10;;;14.70;95.00;;;;;;4975120;28;20042;-59
2023/01/13 11:53:33;;;;;;;20.65;8.48;;;14.70;96.40;;;;;;4991603;28;20054;-59
2023/01/13 11:56:07;;;;;;;24.35;12.07;;;14.60;94.40;;;;;;4991551;28;20412;-60
2023/01/13 11:58:53;;;;;;;26.45;12.38;;;14.70;96.60;;;;;;4990902;28;20077;-60
2023/01/13 12:01:42;;;;;;;27.25;13.88;;;14.60;95.30;;;;;;4969928;28;20142;-60
2023/01/13 12:04:17;;;;;;;28.25;11.10;;;14.60;96.50;;;;;;4972319;28;20174;-59
2023/01/13 12:06:44;;;;;;;24.88;11.65;;;14.30;96.70;;;;;;4956310;28;20202;-59
2023/01/13 12:09:58;;;;;;;21.60;9.75;;;14.50;94.70;;;;;;4972026;28;20038;-61
2023/01/13 12:12:35;;;;;;;22.15;8.73;;;14.60;96.50;;;;;;4983730;28;20058;-58
2023/01/13 12:15:20;;;;;;;19.27;8.02;;;14.70;94.50;;;;;;4992007;28;20085;-60
2023/01/13 12:18:13;;;;;;;17.00;7.03;;;14.70;96.50;;;;;;4995001;28;20053;-60
2023/01/13 12:20:42;;;;;;;18.80;6.78;;;14.70;96.50;;;;;;5055483;28;20045;-59
2023/01/13 12:23:34;;;;;;;15.52;5.85;;;14.40;94.50;;;;;;5037433;28;20046;-59
2023/01/13 12:26:18;;;;;;;15.23;4.93;;;14.60;95.30;;;;;;5036720;28;20099;-62
2023/01/13 12:28:44;;;;;;;13.38;4.60;;;;;;;;;;5051961;28;20044;-59
2023/01/13 12:31:10;;;;;;;12.95;4.13;;;14.80;96.40;;;;;;5036455;28;20060;-60
2023/01/13 12:34:09;;;;;;;12.48;4.32;;;14.70;94.50;;;;;;5049101;28;20053;-64
2023/01/13 12:37:14;;;;;;;10.82;4.07;;;14.60;94.50;;;;;;5054362;28;20475;-59
2023/01/13 12:40:00;;;;;;;11.10;3.47;;;14.70;96.30;;;;;;4992921;28;20440;-63
2023/01/13 12:45:25;;;;;;;10.77;3.60;;;;;;;;;;4980159;28;20058;-72
2023/01/13 12:47:52;;;;;;;11.90;3.35;;;;;;;;;;4994413;28;20432;-60
2023/01/13 12:50:26;;;;;;;12.52;3.40;;;14.80;96.20;;;;;;4986648;28;20086;-63
2023/01/13 12:52:53;;;;;;;11.02;3.13;;;14.90;96.30;;;;;;4991612;28;20428;-60
2023/01/13 12:55:23;;;;;;;10.40;3.15;;;;;;;;;;4989686;28;20088;-73
2023/01/13 12:57:56;;;;;;;11.45;2.95;;;14.60;95.00;;;;;;4974757;28;20051;-59
2023/01/13 13:00:22;;;;;;;11.27;2.90;;;;;;;;;;4988430;28;20129;-62
2023/01/13 13:03:18;;;;;;;12.68;3.13;;;14.70;94.90;;;;;;4969222;28;20039;-60
2023/01/13 13:05:54;;;;;;;11.55;2.80;;;14.90;94.80;;;;;;4964122;28;20602;-60
2023/01/13 13:08:44;;;;;;;14.50;3.08;;;14.30;96.30;;;;;;4959706;28;20050;-59
2023/01/13 13:13:58;;;;;;;13.02;2.55;;;;;;;;;;4994774;28;20110;-60
2023/01/13 13:16:29;;;;;;;9.55;2.40;;;14.60;94.90;;;;;;5007783;28;20132;-60
2023/01/13 13:19:16;;;;;;;9.05;3.40;;;14.90;94.40;;;;;;5043232;28;20049;-60
2023/01/13 13:22:17;;;;;;;11.30;3.08;;;14.60;94.30;;;;;;5054155;28;20084;-59
2023/01/13 13:24:58;;;;;;;11.98;2.35;;;14.70;96.00;;;;;;5040009;28;20054;-60
2023/01/13 13:27:24;;;;;;;9.30;2.38;;;;;;;;;;5049742;28;20060;-73
2023/01/13 13:30:15;;;;;;;82.85;16.55;;;14.60;96.10;;;;;;5043417;28;20083;-59
2023/01/13 13:33:00;;;;;;;20.95;4.97;;;14.70;96.10;;;;;;5034363;28;20396;-60
2023/01/13 13:35:39;;;;;;;12.68;2.70;;;14.60;96.00;;;;;;5035299;28;20045;-62
2023/01/13 13:47:20;;;;;;;12.05;2.22;;;;;;;;;;4993295;28;20046;-60
2023/01/13 13:49:52;;;;;;;8.48;1.80;;;14.80;93.80;;;;;;4993457;28;20045;-69
2023/01/13 13:52:19;;;;;;;11.95;2.35;;;;;;;;;;4990729;28;20069;-60
2023/01/13 13:54:48;;;;;;;14.13;2.42;;;14.90;94.00;;;;;;4992374;28;20584;-63
2023/01/13 13:57:18;;;;;;;8.82;2.13;;;15.00;95.70;;;;;;4958226;28;20574;-67
2023/01/13 13:59:43;;;;;;;18.58;3.25;;;14.90;95.70;;;;;;4973738;28;20403;-60
2023/01/13 14:02:22;;;;;;;15.25;3.22;;;14.80;93.70;;;;;;4958720;28;20126;-73
2023/01/13 14:04:48;;;;;;;18.30;2.50;;;14.90;95.70;;;;;;4957720;28;20504;-70
2023/01/13 14:07:19;;;;;;;13.15;2.42;;;;;;;;;;4972642;28;20048;-76
2023/01/13 14:09:47;;;;;;;7.80;2.15;;;15.10;94.30;;;;;;4992183;28;20133;-75
2023/01/13 14:12:18;;;;;;;12.25;2.90;;;;;;;;;;4993646;28;20042;-75
2023/01/13 14:14:44;;;;;;;8.45;2.00;;;;;;;;;;4985834;28;20109;-59
2023/01/13 14:17:24;;;;;;;12.10;2.33;;;14.80;95.50;;;;;;4993275;28;20057;-61
2023/01/13 14:20:08;;;;;;;8.80;2.15;;;14.90;94.40;;;;;;5019469;28;20090;-74
2023/01/13 14:22:34;;;;;;;12.13;2.90;;;;;;;;;;5036703;28;20379;-74
2023/01/13 14:25:00;;;;;;;6.38;1.85;;;;;;;;;;5049511;28;20037;-59
2023/01/13 14:27:27;;;;;;;9.40;2.63;;;;;;;;;;5032680;28;20072;-66
2023/01/13 14:29:54;;;;;;;8.07;2.08;;;;;;;;;;5016570;28;20419;-63